Time;durP1;ratioP1;P1;durP2;ratioP2;P2;SDS_P1;SDS_P2;PMS_P1;PMS_P2;Temp;Humidity;BMP_temperature;BMP_pressure;BME280_temperature;BME280_humidity;BME280_pressure;Samples;Min_cycle;Max_cycle;Signal;HPM_P1;HPM_P2
2022/04/21 00:00:31;;;;;;;6.30;5.70;;;9.80;94.60;;;;;;5056858;28;20699;-66
2022/04/21 00:02:56;;;;;;;7.20;5.85;;;9.80;94.20;;;;;;5055923;28;20190;-66
2022/04/21 00:05:22;;;;;;;7.18;5.72;;;9.90;94.20;;;;;;5055481;28;20182;-67
2022/04/21 00:07:48;;;;;;;6.70;6.07;;;9.90;94.70;;;;;;5055593;28;20178;-66
2022/04/21 00:10:14;;;;;;;6.78;6.07;;;9.90;94.60;;;;;;5055525;28;20322;-68
2022/04/21 00:12:40;;;;;;;6.95;5.47;;;9.90;94.50;;;;;;5056461;28;20268;-68
2022/04/21 00:15:07;;;;;;;10.38;6.85;;;9.90;94.20;;;;;;5057009;28;20170;-68
2022/04/21 00:17:33;;;;;;;6.93;5.78;;;9.70;93.80;;;;;;5055871;28;20202;-68
2022/04/21 00:19:59;;;;;;;7.35;6.03;;;9.50;94.90;;;;;;5055752;28;20174;-68
2022/04/21 00:25:11;;;;;;;7.18;6.07;;;9.40;96.90;;;;;;5057277;28;20216;-68
2022/04/21 00:27:43;;;;;;;6.82;6.20;;;9.40;97.60;;;;;;5055356;28;20201;-68
2022/04/21 00:30:11;;;;;;;9.80;6.40;;;9.50;97.30;;;;;;5055752;28;20193;-68
2022/04/21 00:32:38;;;;;;;6.70;6.10;;;9.50;97.50;;;;;;5055160;28;20206;-67
2022/04/21 00:35:06;;;;;;;6.57;5.63;;;9.60;96.50;;;;;;5056224;28;20170;-67
2022/04/21 00:37:32;;;;;;;5.85;5.22;;;9.60;94.90;;;;;;5056173;28;20198;-67
2022/04/21 00:39:59;;;;;;;6.28;4.70;;;9.50;94.30;;;;;;5056507;28;20177;-67
2022/04/21 00:42:24;;;;;;;5.07;4.20;;;9.50;93.50;;;;;;5056147;28;20171;-67
2022/04/21 00:44:50;;;;;;;5.25;4.30;;;9.50;93.40;;;;;;5055484;28;20660;-67
2022/04/21 00:47:17;;;;;;;4.78;4.20;;;9.40;92.90;;;;;;5056024;28;20232;-67
2022/04/21 00:49:45;;;;;;;5.43;4.40;;;9.40;92.80;;;;;;5057080;28;20190;-68
2022/04/21 00:52:11;;;;;;;5.88;4.40;;;9.40;92.80;;;;;;5055949;28;20190;-68
2022/04/21 00:54:37;;;;;;;4.60;4.20;;;9.30;92.90;;;;;;5055618;28;20182;-68
2022/04/21 00:57:04;;;;;;;5.13;4.18;;;9.20;93.10;;;;;;5054055;28;20677;-68
2022/04/21 00:59:30;;;;;;;6.15;4.45;;;9.20;93.20;;;;;;5054966;28;20183;-69
2022/04/21 01:04:41;;;;;;;5.50;3.90;;;9.30;92.90;;;;;;5056093;28;20201;-66
2022/04/21 01:07:10;;;;;;;9.35;3.97;;;9.40;92.10;;;;;;5054490;28;20241;-66
2022/04/21 01:09:36;;;;;;;5.32;3.75;;;9.50;91.80;;;;;;5054208;28;20213;-66
2022/04/21 01:12:07;;;;;;;3.92;3.58;;;9.40;91.20;;;;;;5055097;28;20230;-68
2022/04/21 01:14:32;;;;;;;5.40;3.85;;;9.40;91.50;;;;;;5054553;28;20166;-68
2022/04/21 01:17:01;;;;;;;7.25;3.42;;;9.40;91.20;;;;;;5055232;28;20190;-68
2022/04/21 01:19:27;;;;;;;4.10;3.72;;;9.40;91.10;;;;;;5055281;28;20178;-69
2022/04/21 01:21:52;;;;;;;6.72;3.85;;;9.50;90.90;;;;;;5054334;28;20184;-69
2022/04/21 01:24:18;;;;;;;4.53;4.10;;;9.40;90.90;;;;;;5054620;28;20187;-69
2022/04/21 01:26:43;;;;;;;5.03;3.42;;;9.40;90.90;;;;;;5054443;28;20201;-68
2022/04/21 01:29:09;;;;;;;6.57;3.60;;;9.50;90.90;;;;;;5055404;28;20175;-68
2022/04/21 01:31:35;;;;;;;4.00;3.70;;;9.50;91.10;;;;;;5054784;28;20205;-66
2022/04/21 01:34:00;;;;;;;5.22;3.95;;;9.50;91.20;;;;;;5053937;28;20188;-66
2022/04/21 01:36:26;;;;;;;5.30;4.07;;;9.60;91.30;;;;;;5053907;28;20197;-66
2022/04/21 01:41:36;;;;;;;6.07;4.10;;;9.50;91.20;;;;;;5055686;28;20216;-68
2022/04/21 01:44:02;;;;;;;4.90;3.78;;;9.50;91.30;;;;;;5053827;28;20174;-68
2022/04/21 01:46:27;;;;;;;6.32;4.00;;;9.50;91.30;;;;;;5053917;28;20237;-70
2022/04/21 01:49:32;;;;;;;6.07;4.10;;;9.40;91.60;;;;;;5054785;28;20209;-70
2022/04/21 01:51:58;;;;;;;5.95;4.60;;;9.30;92.10;;;;;;5054676;28;20190;-70
2022/04/21 01:54:23;;;;;;;7.80;4.60;;;9.30;92.30;;;;;;5054961;28;20178;-70
2022/04/21 01:56:49;;;;;;;5.22;4.63;;;9.30;92.10;;;;;;5053937;28;20202;-71
2022/04/21 01:59:14;;;;;;;5.47;4.97;;;9.40;92.40;;;;;;5054093;28;20178;-71
2022/04/21 02:01:40;;;;;;;7.13;5.60;;;9.30;92.80;;;;;;5053893;28;20232;-70
2022/04/21 02:04:06;;;;;;;6.10;5.53;;;9.30;93.10;;;;;;5054277;28;20205;-70
2022/04/21 02:06:31;;;;;;;6.07;5.38;;;9.30;93.50;;;;;;5053777;28;20226;-70
2022/04/21 02:08:58;;;;;;;6.28;5.63;;;9.20;93.80;;;;;;5053870;28;20182;-69
2022/04/21 02:11:24;;;;;;;6.93;5.65;;;9.10;94.20;;;;;;5053470;28;20234;-69
2022/04/21 02:13:49;;;;;;;6.28;5.68;;;9.10;94.50;;;;;;5054020;28;20170;-69
2022/04/21 02:16:15;;;;;;;8.10;6.20;;;9.10;94.80;;;;;;5054627;28;20216;-69
2022/04/21 02:18:40;;;;;;;7.40;6.22;;;9.00;95.40;;;;;;5053367;28;20174;-69
2022/04/21 02:21:06;;;;;;;8.85;6.20;;;9.00;95.80;;;;;;5053625;28;20170;-69
2022/04/21 02:23:31;;;;;;;8.55;7.38;;;9.00;95.90;;;;;;5054284;28;20292;-70
2022/04/21 02:25:57;;;;;;;8.25;6.95;;;9.10;95.90;;;;;;5052858;28;20198;-70
2022/04/21 02:28:23;;;;;;;8.40;7.60;;;9.10;95.90;;;;;;5052912;28;20174;-70
2022/04/21 02:30:48;;;;;;;10.23;8.60;;;9.10;96.30;;;;;;5052940;28;20171;-70
2022/04/21 02:33:14;;;;;;;13.98;10.65;;;9.10;96.20;;;;;;5053468;28;20213;-71
2022/04/21 02:35:39;;;;;;;16.85;10.85;;;9.00;97.00;;;;;;5053468;28;20236;-70
2022/04/21 02:38:05;;;;;;;12.23;9.52;;;8.90;97.80;;;;;;5053001;28;20205;-71
2022/04/21 02:40:31;;;;;;;9.75;7.82;;;9.00;98.10;;;;;;5053072;28;20266;-71
2022/04/21 02:42:56;;;;;;;8.60;7.13;;;9.00;98.10;;;;;;5053242;28;20184;-71
2022/04/21 02:45:22;;;;;;;7.93;6.30;;;9.00;97.50;;;;;;5053162;28;20190;-71
2022/04/21 02:47:49;;;;;;;8.18;6.32;;;9.00;98.10;;;;;;5053669;28;20178;-69
2022/04/21 02:50:17;;;;;;;11.85;6.47;;;9.00;97.90;;;;;;5053967;28;20208;-69
2022/04/21 02:52:43;;;;;;;7.55;6.13;;;9.00;97.80;;;;;;5053735;28;20245;-69
2022/04/21 02:57:56;;;;;;;7.22;6.15;;;9.00;98.00;;;;;;5054509;28;20174;-70
2022/04/21 03:00:22;;;;;;;6.60;5.97;;;9.00;98.10;;;;;;5052560;28;20711;-71
2022/04/21 03:02:48;;;;;;;6.38;5.78;;;9.00;98.20;;;;;;5054110;28;20179;-71
2022/04/21 03:05:13;;;;;;;8.48;5.90;;;9.00;98.10;;;;;;5052609;28;20178;-71
2022/04/21 03:07:39;;;;;;;7.18;5.57;;;9.00;97.50;;;;;;5052795;28;20202;-71
2022/04/21 03:10:05;;;;;;;7.40;5.75;;;9.00;97.70;;;;;;5053567;28;20186;-71
2022/04/21 03:12:31;;;;;;;7.82;5.90;;;9.00;97.30;;;;;;5053454;28;20198;-71
2022/04/21 03:14:57;;;;;;;7.10;6.03;;;9.00;97.10;;;;;;5052611;28;20181;-69
2022/04/21 03:17:23;;;;;;;7.68;6.10;;;9.00;97.70;;;;;;5052266;28;20205;-68
2022/04/21 03:19:48;;;;;;;6.90;5.50;;;9.00;97.30;;;;;;5052936;28;20715;-67
2022/04/21 03:25:03;;;;;;;6.70;5.10;;;9.00;97.40;;;;;;5053846;28;20181;-70
2022/04/21 03:27:29;;;;;;;8.13;5.60;;;9.00;97.70;;;;;;5052234;28;20206;-70
2022/04/21 03:29:56;;;;;;;6.85;5.85;;;9.00;97.40;;;;;;5052808;28;20174;-66
2022/04/21 03:32:21;;;;;;;10.77;6.65;;;9.00;97.50;;;;;;5052228;28;20689;-66
2022/04/21 03:34:47;;;;;;;7.53;6.13;;;9.10;97.20;;;;;;5051969;28;20182;-66
2022/04/21 03:37:14;;;;;;;8.00;5.32;;;9.10;97.20;;;;;;5053167;28;20194;-66
2022/04/21 03:39:40;;;;;;;8.35;5.20;;;9.10;97.10;;;;;;5052270;28;20185;-66
2022/04/21 03:42:07;;;;;;;7.35;5.30;;;9.10;96.90;;;;;;5051877;28;20190;-66
2022/04/21 03:44:34;;;;;;;8.02;6.15;;;9.10;96.70;;;;;;5051900;28;20186;-66
2022/04/21 03:46:59;;;;;;;6.55;5.45;;;9.10;96.70;;;;;;5051830;28;20224;-67
2022/04/21 03:49:27;;;;;;;9.40;5.20;;;9.20;96.70;;;;;;5052505;28;20186;-67
2022/04/21 03:51:52;;;;;;;5.75;5.25;;;9.20;96.50;;;;;;5051802;28;20216;-66
2022/04/21 03:54:18;;;;;;;5.82;5.28;;;9.10;96.50;;;;;;5053298;28;20170;-67
2022/04/21 03:56:43;;;;;;;8.90;5.72;;;9.10;97.00;;;;;;5052982;28;20198;-67
2022/04/21 03:59:09;;;;;;;5.75;5.25;;;9.10;96.90;;;;;;5052528;28;20182;-66
2022/04/21 04:01:34;;;;;;;6.03;5.43;;;9.10;96.60;;;;;;5052967;28;20186;-66
2022/04/21 04:04:00;;;;;;;7.40;5.18;;;9.10;96.70;;;;;;5052819;28;20178;-66
2022/04/21 04:11:54;;;;;;;5.65;5.05;;;8.90;98.00;;;;;;5053000;28;20216;-68
2022/04/21 04:14:21;;;;;;;5.72;5.13;;;8.90;99.00;;;;;;5051580;28;20272;-69
2022/04/21 04:16:47;;;;;;;7.15;5.25;;;8.90;98.60;;;;;;5051986;28;20199;-69
2022/04/21 04:19:12;;;;;;;7.97;5.20;;;8.90;99.00;;;;;;5053610;28;20209;-69
2022/04/21 04:21:38;;;;;;;7.82;5.50;;;9.00;99.10;;;;;;5051828;28;20216;-67
2022/04/21 04:24:05;;;;;;;5.22;4.65;;;9.00;98.80;;;;;;5052225;28;20178;-67
2022/04/21 04:26:34;;;;;;;6.40;5.00;;;9.10;98.80;;;;;;5052193;28;20252;-67
2022/04/21 04:29:02;;;;;;;5.90;5.38;;;9.10;98.50;;;;;;5051703;28;20626;-67
2022/04/21 04:31:28;;;;;;;8.80;5.10;;;9.20;97.90;;;;;;5053282;28;20669;-67
2022/04/21 04:33:53;;;;;;;9.32;5.40;;;9.20;97.50;;;;;;5055458;28;20178;-67
2022/04/21 04:36:19;;;;;;;6.68;5.68;;;9.10;98.50;;;;;;5055010;28;20224;-69
2022/04/21 04:38:45;;;;;;;5.97;5.35;;;9.10;98.60;;;;;;5055423;28;20170;-69
2022/04/21 04:43:56;;;;;;;5.50;5.00;;;9.00;98.80;;;;;;5056798;28;20207;-69
2022/04/21 04:46:40;;;;;;;5.82;5.22;;;9.00;98.60;;;;;;5056038;28;20186;-69
2022/04/21 04:49:08;;;;;;;7.43;5.00;;;9.00;99.20;;;;;;5054879;28;20217;-69
2022/04/21 04:51:35;;;;;;;5.63;5.03;;;9.10;98.60;;;;;;5054828;28;20205;-70
2022/04/21 04:54:05;;;;;;;6.10;4.88;;;9.10;98.10;;;;;;5055133;28;20205;-70
2022/04/21 04:56:30;;;;;;;5.80;4.88;;;9.20;97.80;;;;;;5054685;28;20199;-70
2022/04/21 04:58:56;;;;;;;8.60;5.35;;;9.20;97.20;;;;;;5055534;28;20174;-68
2022/04/21 05:01:45;;;;;;;5.22;4.72;;;9.20;97.20;;;;;;5055468;28;20174;-68
2022/04/21 05:05:03;;;;;;;6.28;5.05;;;9.10;97.80;;;;;;5056319;28;20150;-68
2022/04/21 05:07:29;;;;;;;7.43;5.22;;;9.20;98.20;;;;;;5054913;28;20190;-68
2022/04/21 05:09:54;;;;;;;15.27;5.10;;;9.30;97.10;;;;;;5054518;28;20557;-68
2022/04/21 05:12:21;;;;;;;7.30;5.03;;;9.40;97.30;;;;;;5055182;28;20243;-68
2022/04/21 05:14:48;;;;;;;6.22;5.28;;;9.40;96.70;;;;;;5054720;28;20220;-68
2022/04/21 05:17:13;;;;;;;7.72;5.03;;;9.40;96.90;;;;;;5054536;28;20209;-68
2022/04/21 05:19:39;;;;;;;6.10;4.70;;;9.40;96.50;;;;;;5054295;28;20170;-68
2022/04/21 05:22:06;;;;;;;5.55;4.53;;;9.50;96.70;;;;;;5054519;28;20178;-68
2022/04/21 05:24:33;;;;;;;6.57;4.82;;;9.50;95.70;;;;;;5055406;28;20228;-68
2022/04/21 05:26:59;;;;;;;5.60;4.88;;;9.50;95.20;;;;;;5054110;28;20194;-66
2022/04/21 05:32:10;;;;;;;7.32;4.97;;;9.70;94.50;;;;;;5055895;28;20239;-69
2022/04/21 05:34:36;;;;;;;10.75;4.90;;;9.70;93.70;;;;;;5054087;28;20204;-68
2022/04/21 05:37:03;;;;;;;5.00;4.40;;;9.80;94.10;;;;;;5055197;28;20252;-68
2022/04/21 05:39:40;;;;;;;8.05;4.72;;;9.80;93.60;;;;;;5054830;28;20178;-68
2022/04/21 05:42:06;;;;;;;6.68;4.50;;;9.90;93.40;;;;;;5054149;28;20170;-68
2022/04/21 05:44:32;;;;;;;7.20;4.75;;;9.90;93.30;;;;;;5053953;28;20189;-68
2022/04/21 05:46:58;;;;;;;5.32;4.60;;;10.00;93.10;;;;;;5054022;28;20210;-68
2022/04/21 05:49:24;;;;;;;6.28;4.72;;;10.10;93.10;;;;;;5054982;28;20217;-68
2022/04/21 05:55:12;;;;;;;7.50;4.35;;;10.20;92.60;;;;;;5055152;28;20153;-67
2022/04/21 05:57:40;;;;;;;6.20;4.10;;;10.30;91.10;;;;;;5053349;28;20224;-67
2022/04/21 06:00:07;;;;;;;6.55;4.28;;;10.40;91.10;;;;;;5054657;28;20190;-67
2022/04/21 06:02:35;;;;;;;11.43;4.43;;;10.50;90.30;;;;;;5053455;28;20269;-67
2022/04/21 06:05:00;;;;;;;9.98;4.43;;;10.50;90.00;;;;;;5053467;28;20189;-68
2022/04/21 06:07:26;;;;;;;9.43;4.68;;;10.60;90.10;;;;;;5053265;28;20579;-68
2022/04/21 06:09:51;;;;;;;6.50;4.22;;;10.60;89.20;;;;;;5053325;28;20194;-68
2022/04/21 06:12:17;;;;;;;4.22;3.83;;;10.70;88.00;;;;;;5054061;28;20192;-68
2022/04/21 06:14:45;;;;;;;6.22;3.90;;;10.80;88.00;;;;;;5053242;28;20186;-68
2022/04/21 06:17:10;;;;;;;8.43;4.05;;;10.90;86.40;;;;;;5054452;28;20212;-68
2022/04/21 06:19:36;;;;;;;4.47;4.07;;;10.80;86.50;;;;;;5053055;28;20637;-68
2022/04/21 06:22:08;;;;;;;7.72;5.05;;;10.80;87.30;;;;;;5054702;28;20231;-68
2022/04/21 06:24:37;;;;;;;13.65;6.72;;;10.80;86.50;;;;;;5053730;28;20171;-67
2022/04/21 06:27:03;;;;;;;17.27;5.07;;;10.90;87.30;;;;;;5053019;28;20288;-67
2022/04/21 06:29:30;;;;;;;9.90;4.90;;;10.80;85.50;;;;;;5052969;28;20178;-68
2022/04/21 06:31:55;;;;;;;12.48;5.40;;;10.80;85.80;;;;;;5052848;28;20620;-68
2022/04/21 06:34:22;;;;;;;8.90;6.75;;;10.70;85.80;;;;;;5053261;28;20206;-76
2022/04/21 06:36:48;;;;;;;18.13;5.63;;;10.70;85.20;;;;;;5053036;28;20198;-68
2022/04/21 06:39:14;;;;;;;11.18;5.60;;;10.60;85.20;;;;;;5053660;28;20182;-68
2022/04/21 06:41:40;;;;;;;15.32;5.80;;;10.40;86.00;;;;;;5052776;28;20189;-68
2022/04/21 06:49:33;;;;;;;12.02;6.50;;;10.30;88.50;;;;;;5054226;28;20188;-68
2022/04/21 06:51:59;;;;;;;6.90;5.07;;;10.30;89.60;;;;;;5052660;28;20669;-68
2022/04/21 06:54:24;;;;;;;10.52;4.60;;;10.30;89.70;;;;;;5051860;28;20182;-68
2022/04/21 06:56:50;;;;;;;7.20;4.35;;;10.50;89.10;;;;;;5052701;28;20285;-68
2022/04/21 06:59:16;;;;;;;10.98;4.55;;;10.60;88.20;;;;;;5052593;28;20261;-67
2022/04/21 07:01:42;;;;;;;9.55;4.82;;;10.60;87.80;;;;;;5052497;28;20179;-67
2022/04/21 07:04:09;;;;;;;9.27;4.65;;;10.70;85.90;;;;;;5052672;28;20174;-66
2022/04/21 07:06:34;;;;;;;10.75;4.53;;;10.80;86.50;;;;;;5053666;28;20543;-67
2022/04/21 07:09:00;;;;;;;9.30;4.63;;;10.80;85.40;;;;;;5052844;28;20236;-68
2022/04/21 07:11:26;;;;;;;7.50;4.95;;;10.80;84.50;;;;;;5052432;28;20552;-68
2022/04/21 07:13:52;;;;;;;7.43;4.43;;;10.90;84.10;;;;;;5035851;28;20248;-68
2022/04/21 07:16:18;;;;;;;5.15;4.65;;;11.00;84.10;;;;;;5052142;28;20194;-68
2022/04/21 07:18:43;;;;;;;6.13;5.53;;;11.00;83.40;;;;;;5052192;28;20548;-68
2022/04/21 07:21:09;;;;;;;11.98;4.75;;;10.90;82.60;;;;;;5052171;28;20174;-68
2022/04/21 07:23:36;;;;;;;6.47;4.90;;;10.80;83.50;;;;;;5053350;28;20252;-68
2022/04/21 07:26:01;;;;;;;14.60;5.65;;;10.80;83.60;;;;;;5053922;28;20202;-68
2022/04/21 07:28:27;;;;;;;7.32;5.90;;;10.90;83.10;;;;;;5052729;28;20174;-68
2022/04/21 07:30:53;;;;;;;8.63;5.35;;;11.00;82.30;;;;;;5051988;28;20190;-68
2022/04/21 07:33:18;;;;;;;5.78;5.22;;;11.10;81.40;;;;;;5053155;28;20205;-68
2022/04/21 07:35:44;;;;;;;5.43;4.93;;;11.10;81.70;;;;;;5052681;28;20194;-68
2022/04/21 07:38:11;;;;;;;19.80;8.25;;;11.20;81.10;;;;;;5051942;28;20202;-68
2022/04/21 07:40:38;;;;;;;10.27;6.18;;;11.50;79.80;;;;;;5052550;28;20253;-68
2022/04/21 07:43:08;;;;;;;15.50;6.53;;;11.80;78.80;;;;;;5053168;28;20181;-68
2022/04/21 07:45:41;;;;;;;16.80;7.80;;;11.80;77.40;;;;;;5052204;28;20178;-68
2022/04/21 07:48:07;;;;;;;11.52;6.45;;;12.10;77.50;;;;;;5053534;28;20159;-68
2022/04/21 07:50:33;;;;;;;14.70;6.32;;;12.20;76.20;;;;;;5053253;28;20193;-67
2022/04/21 07:53:14;;;;;;;11.52;4.82;;;12.40;75.00;;;;;;5053016;28;20205;-67
2022/04/21 07:55:53;;;;;;;6.53;4.53;;;12.60;74.10;;;;;;5051827;28;20171;-67
2022/04/21 07:58:18;;;;;;;5.15;4.70;;;12.50;72.70;;;;;;5052654;28;20175;-67
2022/04/21 08:00:44;;;;;;;6.03;4.50;;;12.30;72.30;;;;;;5051878;28;20178;-67
2022/04/21 08:03:10;;;;;;;4.68;4.28;;;12.50;73.30;;;;;;5052867;28;20174;-67
2022/04/21 08:05:36;;;;;;;4.50;4.07;;;12.50;71.90;;;;;;5053774;28;20178;-67
2022/04/21 08:08:03;;;;;;;5.68;4.57;;;12.50;71.70;;;;;;5055683;28;20185;-67
2022/04/21 08:10:29;;;;;;;5.22;4.30;;;12.70;72.30;;;;;;5056345;28;20197;-67
2022/04/21 08:12:58;;;;;;;5.53;4.43;;;12.90;71.90;;;;;;5057021;28;20190;-67
2022/04/21 08:15:29;;;;;;;6.72;4.63;;;13.00;70.40;;;;;;5055970;28;20174;-67
2022/04/21 08:17:57;;;;;;;6.53;4.88;;;13.20;70.10;;;;;;5056357;28;20219;-67
2022/04/21 08:20:25;;;;;;;5.13;4.60;;;13.50;69.20;;;;;;5056603;28;20174;-67
2022/04/21 08:22:51;;;;;;;4.75;4.35;;;13.40;68.00;;;;;;5055381;28;20178;-67
2022/04/21 08:33:28;;;;;;;9.32;4.90;;;13.90;66.90;;;;;;5056772;28;20217;-68
2022/04/21 08:35:58;;;;;;;10.88;4.82;;;14.10;65.50;;;;;;5055612;28;20198;-68
2022/04/21 08:38:28;;;;;;;9.35;5.15;;;13.90;65.50;;;;;;5055095;28;20182;-68
2022/04/21 08:40:59;;;;;;;7.28;4.97;;;14.10;65.90;;;;;;5055032;28;20182;-68
2022/04/21 08:43:27;;;;;;;8.82;4.93;;;14.20;65.50;;;;;;5056202;28;20174;-68
2022/04/21 08:45:53;;;;;;;6.60;4.95;;;14.40;65.90;;;;;;5056326;28;20206;-68
2022/04/21 08:48:22;;;;;;;6.45;5.22;;;14.90;64.40;;;;;;5055267;28;20179;-68
2022/04/21 08:50:48;;;;;;;5.45;4.90;;;14.90;62.90;;;;;;5056077;28;20183;-68
2022/04/21 08:53:15;;;;;;;5.93;4.80;;;15.10;62.60;;;;;;5055149;28;20213;-68
2022/04/21 08:55:42;;;;;;;8.18;4.80;;;15.10;62.10;;;;;;5056296;28;20194;-68
2022/04/21 08:58:08;;;;;;;9.15;5.10;;;14.70;62.00;;;;;;5055053;28;20265;-68
2022/04/21 09:00:33;;;;;;;7.10;4.55;;;14.60;63.90;;;;;;5055821;28;20309;-68
2022/04/21 09:03:00;;;;;;;7.18;5.00;;;15.00;63.80;;;;;;5054925;28;20197;-68
2022/04/21 09:05:29;;;;;;;6.90;5.65;;;15.40;61.90;;;;;;5055728;28;20186;-68
2022/04/21 09:07:59;;;;;;;13.90;6.15;;;15.30;60.50;;;;;;5054795;28;20180;-68
2022/04/21 09:10:28;;;;;;;14.73;7.60;;;14.90;62.50;;;;;;5054455;28;20656;-68
2022/04/21 09:12:56;;;;;;;7.97;5.63;;;14.80;62.40;;;;;;5054647;28;20201;-68
2022/04/21 09:15:27;;;;;;;14.07;7.28;;;14.80;62.50;;;;;;5065434;28;20163;-68
2022/04/21 09:18:00;;;;;;;6.40;5.53;;;15.00;63.40;;;;;;5067206;28;20162;-68
2022/04/21 09:20:33;;;;;;;9.93;5.47;;;15.30;62.80;;;;;;5069139;28;20174;-68
2022/04/21 09:23:02;;;;;;;12.55;5.65;;;15.50;62.30;;;;;;5068115;28;20629;-68
2022/04/21 09:25:52;;;;;;;13.50;6.53;;;15.70;61.30;;;;;;5061268;28;20186;-68
2022/04/21 09:28:32;;;;;;;13.90;9.63;;;15.40;62.10;;;;;;5053994;28;20190;-69
2022/04/21 09:31:01;;;;;;;13.35;8.90;;;14.80;62.60;;;;;;5068788;28;20166;-68
2022/04/21 09:33:32;;;;;;;16.73;7.30;;;14.30;64.10;;;;;;5067900;28;20279;-68
2022/04/21 09:36:09;;;;;;;41.10;7.30;;;14.20;65.80;;;;;;5067942;28;20197;-69
2022/04/21 09:38:35;;;;;;;32.90;7.78;;;14.10;65.90;;;;;;5060987;28;20197;-68
2022/04/21 09:41:08;;;;;;;30.27;7.60;;;14.10;66.40;;;;;;5054847;28;20174;-68
2022/04/21 09:43:37;;;;;;;37.63;7.30;;;14.20;66.20;;;;;;5053752;28;20182;-68
2022/04/21 09:46:23;;;;;;;8.93;5.47;;;14.20;66.90;;;;;;5053753;28;20202;-68
2022/04/21 09:48:53;;;;;;;6.15;4.88;;;14.10;67.30;;;;;;5053787;28;20166;-68
2022/04/21 09:51:24;;;;;;;9.52;6.78;;;14.00;66.50;;;;;;5053776;28;20173;-68
2022/04/21 09:54:03;;;;;;;8.50;6.80;;;13.50;67.80;;;;;;5053626;28;20167;-68
2022/04/21 09:56:33;;;;;;;7.18;6.50;;;13.10;69.60;;;;;;5054196;28;20252;-68
2022/04/21 09:59:01;;;;;;;6.90;5.28;;;13.20;69.60;;;;;;5053864;28;20174;-68
2022/04/21 10:01:28;;;;;;;6.95;4.90;;;13.40;69.90;;;;;;5053845;28;20181;-68
2022/04/21 10:03:55;;;;;;;8.38;4.50;;;13.70;68.30;;;;;;5054542;28;20186;-68
2022/04/21 10:06:21;;;;;;;8.38;4.70;;;14.20;67.80;;;;;;5053656;28;20248;-68
2022/04/21 10:08:49;;;;;;;6.15;4.90;;;14.60;66.40;;;;;;5054256;28;20270;-68
2022/04/21 10:11:16;;;;;;;5.60;5.00;;;14.80;64.90;;;;;;5053073;28;20288;-68
2022/04/21 10:13:42;;;;;;;4.70;4.30;;;14.90;63.60;;;;;;5053517;28;20635;-67
2022/04/21 10:16:08;;;;;;;4.88;4.38;;;15.20;64.50;;;;;;5054418;28;20194;-67
2022/04/21 10:18:35;;;;;;;5.05;4.55;;;15.40;62.50;;;;;;5053208;28;20181;-66
2022/04/21 10:21:00;;;;;;;5.00;4.40;;;15.30;62.60;;;;;;5054329;28;20300;-66
2022/04/21 10:23:28;;;;;;;5.25;4.75;;;15.70;62.70;;;;;;5054416;28;20206;-66
2022/04/21 10:26:02;;;;;;;14.45;4.30;;;15.80;61.70;;;;;;5054207;28;20360;-67
2022/04/21 10:28:41;;;;;;;8.00;4.40;;;15.70;61.40;;;;;;5052006;28;20182;-66
2022/04/21 10:31:27;;;;;;;3.55;3.05;;;15.20;61.10;;;;;;5053048;28;20217;-67
2022/04/21 10:33:55;;;;;;;4.07;3.47;;;15.10;62.90;;;;;;5054187;28;20162;-67
2022/04/21 10:36:34;;;;;;;3.60;3.30;;;15.60;61.30;;;;;;5053997;28;20217;-67
2022/04/21 10:39:18;;;;;;;3.38;3.17;;;15.20;62.30;;;;;;5054329;28;20166;-68
2022/04/21 10:41:44;;;;;;;5.05;3.72;;;14.40;63.90;;;;;;5052765;28;20185;-67
2022/04/21 10:44:26;;;;;;;4.22;3.40;;;14.10;65.40;;;;;;5053151;28;20209;-66
2022/04/21 10:47:27;;;;;;;4.53;3.58;;;14.00;66.10;;;;;;5052678;28;20197;-66
2022/04/21 10:49:57;;;;;;;3.72;3.40;;;13.70;67.60;;;;;;5052651;28;20174;-66
2022/04/21 10:57:49;;;;;;;8.13;4.10;;;13.50;68.50;;;;;;5054027;28;20169;-66
2022/04/21 11:00:25;;;;;;;8.65;3.80;;;13.60;68.60;;;;;;5053666;28;20252;-66
2022/04/21 11:03:02;;;;;;;4.35;3.70;;;13.80;68.90;;;;;;5053531;28;20180;-66
2022/04/21 11:05:38;;;;;;;4.55;3.97;;;14.10;68.20;;;;;;5053717;28;20185;-67
2022/04/21 11:08:14;;;;;;;5.38;3.42;;;14.30;67.20;;;;;;5052386;28;20253;-67
2022/04/21 11:10:43;;;;;;;3.80;3.50;;;14.30;66.40;;;;;;5052885;28;20247;-67
2022/04/21 11:13:19;;;;;;;4.57;3.85;;;14.50;66.80;;;;;;5054271;28;20285;-67
2022/04/21 11:15:45;;;;;;;4.10;3.53;;;14.70;66.50;;;;;;5052204;28;20198;-67
2022/04/21 11:18:30;;;;;;;3.63;3.33;;;14.90;66.40;;;;;;5053954;28;20174;-67
2022/04/21 11:21:31;;;;;;;5.15;3.15;;;15.20;64.70;;;;;;5053297;28;20244;-67
2022/04/21 11:23:56;;;;;;;5.57;3.58;;;15.40;63.40;;;;;;5053302;28;20158;-67
2022/04/21 11:26:26;;;;;;;6.18;3.30;;;15.60;61.90;;;;;;5052014;28;20205;-67
2022/04/21 11:28:52;;;;;;;4.03;2.97;;;15.70;62.70;;;;;;5052334;28;20333;-67
2022/04/21 11:31:21;;;;;;;4.07;3.30;;;15.80;61.70;;;;;;5052422;28;20253;-66
2022/04/21 11:33:47;;;;;;;3.67;3.30;;;15.60;61.20;;;;;;5052009;28;20209;-66
2022/04/21 11:36:15;;;;;;;3.60;3.30;;;15.50;61.40;;;;;;5053020;28;20232;-67
2022/04/21 11:38:42;;;;;;;4.90;3.00;;;15.70;61.80;;;;;;5052038;28;20181;-66
2022/04/21 11:41:10;;;;;;;3.65;3.33;;;15.90;61.80;;;;;;5056929;28;20186;-67
2022/04/21 11:43:37;;;;;;;3.95;3.33;;;16.20;61.40;;;;;;5056087;28;20205;-67
2022/04/21 11:46:06;;;;;;;3.90;3.50;;;16.20;60.30;;;;;;5056012;28;20240;-67
2022/04/21 11:48:33;;;;;;;4.43;3.50;;;15.90;60.40;;;;;;5056356;28;20178;-66
2022/04/21 11:51:00;;;;;;;5.13;3.45;;;16.00;60.70;;;;;;5057002;28;20181;-68
2022/04/21 11:53:34;;;;;;;6.78;3.08;;;16.00;60.80;;;;;;5057082;28;20226;-68
2022/04/21 11:56:00;;;;;;;4.65;3.22;;;16.20;60.60;;;;;;5056712;28;20281;-69
2022/04/21 11:58:34;;;;;;;3.47;3.22;;;16.20;60.20;;;;;;5055962;28;20261;-69
2022/04/21 12:06:50;;;;;;;3.53;3.00;;;15.90;62.20;;;;;;5057499;28;20198;-68
2022/04/21 12:09:26;;;;;;;3.03;2.83;;;15.80;62.60;;;;;;5055900;28;20169;-68
2022/04/21 12:11:57;;;;;;;4.95;3.45;;;15.90;62.00;;;;;;5057030;28;20285;-68
2022/04/21 12:14:24;;;;;;;7.05;3.25;;;16.40;61.70;;;;;;5056710;28;20158;-68
2022/04/21 12:16:55;;;;;;;5.28;3.60;;;16.30;60.80;;;;;;5056785;28;20190;-68
2022/04/21 12:19:42;;;;;;;3.90;3.47;;;16.20;60.80;;;;;;5056070;28;20217;-68
2022/04/21 12:22:16;;;;;;;6.88;3.90;;;15.90;61.70;;;;;;5056398;28;20190;-68
2022/04/21 12:24:42;;;;;;;3.33;3.13;;;15.90;61.50;;;;;;5056692;28;20308;-68
2022/04/21 12:27:18;;;;;;;5.30;3.72;;;16.00;61.90;;;;;;5055956;28;20241;-68
2022/04/21 12:29:46;;;;;;;6.10;4.20;;;16.20;61.70;;;;;;5055557;28;20177;-68
2022/04/21 12:32:11;;;;;;;9.73;5.00;;;16.30;62.30;;;;;;5055398;28;20304;-68
2022/04/21 12:34:40;;;;;;;4.53;4.13;;;16.40;62.40;;;;;;5055554;28;20719;-68
2022/04/21 12:37:07;;;;;;;4.45;3.55;;;16.50;60.80;;;;;;5055454;28;20202;-68
2022/04/21 12:39:33;;;;;;;4.15;3.60;;;15.90;61.30;;;;;;5056308;28;20171;-68
2022/04/21 12:42:01;;;;;;;3.60;3.30;;;15.70;62.10;;;;;;5055039;28;20526;-68
2022/04/21 12:44:27;;;;;;;7.15;3.80;;;15.30;62.60;;;;;;5055304;28;20178;-68
2022/04/21 12:47:15;;;;;;;7.13;3.55;;;15.40;63.70;;;;;;5054900;28;20198;-68
2022/04/21 12:50:01;;;;;;;5.10;4.20;;;15.40;63.80;;;;;;5055425;28;20232;-68
2022/04/21 12:52:26;;;;;;;7.80;4.57;;;15.50;64.10;;;;;;5054859;28;20625;-68
2022/04/21 12:54:52;;;;;;;8.45;6.35;;;15.40;64.20;;;;;;5056086;28;20182;-68
2022/04/21 12:57:21;;;;;;;5.22;4.72;;;15.20;65.40;;;;;;5055056;28;20289;-68
2022/04/21 12:59:46;;;;;;;9.30;5.07;;;15.30;65.60;;;;;;5055070;28;20180;-68
2022/04/21 13:02:13;;;;;;;5.18;4.20;;;15.40;65.50;;;;;;5054703;28;20178;-68
2022/04/21 13:04:39;;;;;;;7.50;4.70;;;15.40;64.30;;;;;;5054899;28;20186;-68
2022/04/21 13:07:05;;;;;;;7.28;5.72;;;15.40;64.30;;;;;;5054979;28;20271;-68
2022/04/21 13:09:31;;;;;;;6.30;5.03;;;15.30;64.70;;;;;;5054383;28;20178;-68
2022/04/21 13:11:57;;;;;;;5.70;4.85;;;15.10;65.50;;;;;;5055280;28;20204;-68
2022/04/21 13:14:22;;;;;;;5.60;5.00;;;14.90;65.50;;;;;;5054435;28;20178;-68
2022/04/21 13:16:48;;;;;;;8.77;5.55;;;14.90;66.20;;;;;;5055573;28;20277;-68
2022/04/21 13:19:14;;;;;;;5.18;4.68;;;14.60;67.10;;;;;;5054347;28;20174;-68
2022/04/21 13:21:57;;;;;;;6.88;5.15;;;14.60;67.10;;;;;;5055094;28;20323;-68
2022/04/21 13:24:27;;;;;;;7.75;4.85;;;14.70;66.60;;;;;;5055750;28;20162;-68
2022/04/21 13:26:53;;;;;;;6.30;4.40;;;14.60;67.10;;;;;;5055334;28;20193;-68
2022/04/21 13:29:21;;;;;;;5.05;4.45;;;14.60;67.20;;;;;;5054326;28;20171;-68
2022/04/21 13:34:32;;;;;;;4.82;4.20;;;14.90;65.30;;;;;;5055833;28;20166;-68
2022/04/21 13:36:59;;;;;;;7.40;4.90;;;14.90;65.90;;;;;;5055444;28;20267;-68
2022/04/21 13:39:24;;;;;;;5.05;4.55;;;14.90;66.30;;;;;;5053967;28;20269;-68
2022/04/21 13:41:50;;;;;;;9.70;5.47;;;14.90;65.70;;;;;;5054328;28;20305;-67
2022/04/21 13:44:16;;;;;;;5.82;5.32;;;14.80;66.90;;;;;;5053927;28;20182;-68
2022/04/21 13:46:42;;;;;;;8.35;5.38;;;14.80;67.20;;;;;;5054127;28;20199;-68
2022/04/21 13:49:09;;;;;;;6.95;5.50;;;14.70;67.20;;;;;;5055410;28;20182;-68
2022/04/21 13:51:36;;;;;;;9.40;5.90;;;14.70;67.40;;;;;;5053999;28;20182;-68